Allons, Tennessee
Current Conditions -  °F | °C
As of 5:55 AM on Saturday 01 Nov 2014 (Local Time) from KSRB Reporting Station
Overcast Overcast  
Wind Chill: 26°   Ceiling: 1400
Heat Index: 34°   Visibility: 10mi
Dew Point: 32°   Wind: 10mph
Humidity: 93%   Direction: 350°N
Pressure: 30.12"   Gusts: NA
Location:  36.44°N, 85.34°W
Report Text: KSRB 011055Z AUTO 35009KT 10SM OVC014 01/00 A3012 RMK
Loading
Personal Weather Stations






























Interactive Weather Map
Tropical Storm Tracking
New forecast layout! Learn more

10-Day Weather Forecast

Advertisements
Track Severe Weather on mobile